createdAt,value
2022-11-04T00:01:26.904Z,5.40
2022-11-04T00:03:54.881Z,5.70
2022-11-04T00:06:22.826Z,5.07
2022-11-04T00:08:52.645Z,4.75
2022-11-04T00:11:38.011Z,5.18
2022-11-04T00:14:06.109Z,5.00
2022-11-04T00:16:51.271Z,5.50
2022-11-04T00:19:19.216Z,5.15
2022-11-04T00:22:04.656Z,5.15
2022-11-04T00:24:51.558Z,5.13
2022-11-04T00:27:37.964Z,5.22
2022-11-04T00:30:08.159Z,5.68
2022-11-04T00:32:53.536Z,5.68
2022-11-04T00:35:21.711Z,5.45
2022-11-04T00:37:49.688Z,5.50
2022-11-04T00:40:19.126Z,5.15
2022-11-04T00:42:47.545Z,5.78
2022-11-04T00:45:15.649Z,5.07
2022-11-04T00:47:43.943Z,5.45
2022-11-04T00:50:11.952Z,5.00
2022-11-04T00:52:39.983Z,4.95
2022-11-04T00:55:08.964Z,5.47
2022-11-04T00:57:38.399Z,5.35
2022-11-04T01:00:07.545Z,5.00
2022-11-04T01:02:35.706Z,4.97
2022-11-04T01:05:03.724Z,5.00
2022-11-04T01:07:32.141Z,5.10
2022-11-04T01:10:00.195Z,4.90
2022-11-04T01:12:28.238Z,5.15
2022-11-04T01:14:57.706Z,5.53
2022-11-04T01:17:25.729Z,5.30
2022-11-04T01:19:53.976Z,5.00
2022-11-04T01:22:21.972Z,4.90
2022-11-04T01:24:49.938Z,5.07
2022-11-04T01:27:17.924Z,4.88
2022-11-04T01:29:45.950Z,5.28
2022-11-04T01:32:15.412Z,5.20
2022-11-04T01:34:43.779Z,5.28
2022-11-04T01:37:11.783Z,5.10
2022-11-04T01:39:39.775Z,5.22
2022-11-04T01:42:07.860Z,5.63
2022-11-04T01:44:50.604Z,5.10
2022-11-04T01:47:21.524Z,5.15
2022-11-04T01:49:51.142Z,4.78
2022-11-04T01:52:21.397Z,5.20
2022-11-04T01:54:49.780Z,5.07
2022-11-04T01:57:19.400Z,4.68
2022-11-04T01:59:47.391Z,5.03
2022-11-04T02:02:15.907Z,4.72
2022-11-04T02:04:45.040Z,4.63
2022-11-04T02:07:14.294Z,4.90
2022-11-04T02:09:42.320Z,5.05
2022-11-04T02:12:27.436Z,4.60
2022-11-04T02:14:55.633Z,5.07
2022-11-04T02:17:44.925Z,4.30
2022-11-04T02:20:25.355Z,5.10
2022-11-04T02:23:33.653Z,5.05
2022-11-04T02:26:42.985Z,5.68
2022-11-04T02:29:19.940Z,5.15
2022-11-04T02:31:52.197Z,5.18
2022-11-04T02:34:23.032Z,5.45
2022-11-04T02:36:53.975Z,4.93
2022-11-04T02:39:24.876Z,5.22
2022-11-04T02:41:54.793Z,5.10
2022-11-04T02:44:28.373Z,4.85
2022-11-04T02:47:00.370Z,5.65
2022-11-04T02:49:31.194Z,5.10
2022-11-04T02:52:00.198Z,5.40
2022-11-04T02:54:29.725Z,5.50
2022-11-04T02:56:58.771Z,5.38
2022-11-04T02:59:30.952Z,4.90
2022-11-04T03:01:59.150Z,5.00
2022-11-04T03:04:28.851Z,5.18
2022-11-04T03:06:56.863Z,4.55
2022-11-04T03:09:24.944Z,4.93
2022-11-04T03:11:54.846Z,5.22
2022-11-04T03:14:25.071Z,4.88
2022-11-04T03:16:55.471Z,5.10
2022-11-04T03:19:27.698Z,4.82
2022-11-04T03:21:56.673Z,4.72
2022-11-04T03:24:24.836Z,4.93
2022-11-04T03:26:56.473Z,5.05
2022-11-04T03:29:26.870Z,5.20
2022-11-04T03:32:02.549Z,5.15
2022-11-04T03:34:30.482Z,5.28
2022-11-04T03:36:58.805Z,5.00
2022-11-04T03:39:26.702Z,4.82
2022-11-04T03:41:56.438Z,5.20
2022-11-04T03:44:24.823Z,5.00
2022-11-04T03:46:53.079Z,4.80
2022-11-04T03:49:22.935Z,5.30
2022-11-04T03:51:50.959Z,5.00
2022-11-04T03:54:18.921Z,4.50
2022-11-04T03:57:06.157Z,5.15
2022-11-04T03:59:58.007Z,4.80
2022-11-04T04:02:28.769Z,4.90
2022-11-04T04:04:59.654Z,4.55
2022-11-04T04:07:30.817Z,4.82
2022-11-04T04:10:01.621Z,4.45
2022-11-04T04:12:33.926Z,4.95
2022-11-04T04:15:04.323Z,4.55
2022-11-04T04:17:35.213Z,4.60
2022-11-04T04:20:05.938Z,4.57
2022-11-04T04:22:35.579Z,4.82
2022-11-04T04:25:24.997Z,4.35
2022-11-04T04:27:52.985Z,4.80
2022-11-04T04:30:21.097Z,4.38
2022-11-04T04:32:51.013Z,4.35
2022-11-04T04:35:37.886Z,5.07
2022-11-04T04:38:24.247Z,5.00
2022-11-04T04:41:12.695Z,4.43
2022-11-04T04:43:58.327Z,4.80
2022-11-04T04:46:26.275Z,4.45
2022-11-04T04:48:54.247Z,4.50
2022-11-04T04:51:23.959Z,4.90
2022-11-04T04:53:51.948Z,4.30
2022-11-04T04:56:19.821Z,4.47
2022-11-04T04:58:47.721Z,5.07
2022-11-04T05:01:15.805Z,4.90
2022-11-04T05:03:45.262Z,4.88
2022-11-04T05:06:13.429Z,4.53
2022-11-04T05:08:42.775Z,4.75
2022-11-04T05:11:10.875Z,4.68
2022-11-04T05:13:38.897Z,4.63
2022-11-04T05:16:08.168Z,4.68
2022-11-04T05:18:36.254Z,4.22
2022-11-04T05:21:05.539Z,4.38
2022-11-04T05:23:33.542Z,4.40
2022-11-04T05:26:02.916Z,4.60
2022-11-04T05:28:30.914Z,4.35
2022-11-04T05:30:58.857Z,4.20
2022-11-04T05:33:26.846Z,4.60
2022-11-04T05:35:54.750Z,4.53
2022-11-04T05:38:22.768Z,4.68
2022-11-04T05:40:50.775Z,4.53
2022-11-04T05:43:20.106Z,4.65
2022-11-04T05:45:48.048Z,4.70
2022-11-04T05:48:16.021Z,4.38
2022-11-04T05:50:44.066Z,3.88
2022-11-04T05:53:12.349Z,4.72
2022-11-04T05:55:40.562Z,4.50
2022-11-04T05:58:08.777Z,4.75
2022-11-04T06:00:38.295Z,4.30
2022-11-04T06:03:08.330Z,4.30
2022-11-04T06:05:37.796Z,4.82
2022-11-04T06:08:06.454Z,4.30
2022-11-04T06:10:34.667Z,4.53
2022-11-04T06:13:02.661Z,4.43
2022-11-04T06:15:30.594Z,4.70
2022-11-04T06:18:00.282Z,4.13
2022-11-04T06:20:28.249Z,4.45
2022-11-04T06:22:56.188Z,4.57
2022-11-04T06:25:24.253Z,4.25
2022-11-04T06:27:52.255Z,4.53
2022-11-04T06:30:20.247Z,4.05
2022-11-04T06:32:48.246Z,4.15
2022-11-04T06:35:17.846Z,4.50
2022-11-04T06:37:45.798Z,4.47
2022-11-04T06:40:14.204Z,4.38
2022-11-04T06:42:42.972Z,4.22
2022-11-04T06:45:11.929Z,4.60
2022-11-04T06:47:39.946Z,4.88
2022-11-04T06:50:08.481Z,4.47
2022-11-04T06:52:42.137Z,4.75
2022-11-04T06:55:11.281Z,3.97
2022-11-04T06:57:39.324Z,4.70
2022-11-04T07:00:09.177Z,4.82
2022-11-04T07:02:38.992Z,4.57
2022-11-04T07:05:08.148Z,4.45
2022-11-04T07:07:37.470Z,4.57
2022-11-04T07:10:06.133Z,4.80
2022-11-04T07:12:34.153Z,4.43
2022-11-04T07:15:02.177Z,4.20
2022-11-04T07:17:30.157Z,4.05
2022-11-04T07:19:58.170Z,4.63
2022-11-04T07:22:26.102Z,4.10
2022-11-04T07:24:55.482Z,4.55
2022-11-04T07:27:23.444Z,4.38
2022-11-04T07:29:51.437Z,4.35
2022-11-04T07:32:19.479Z,4.05
2022-11-04T07:34:47.464Z,4.40
2022-11-04T07:37:15.449Z,3.95
2022-11-04T07:39:43.895Z,4.18
2022-11-04T07:42:13.214Z,4.40
2022-11-04T07:44:41.140Z,4.50
2022-11-04T07:47:09.149Z,4.43
2022-11-04T07:49:37.244Z,4.55
2022-11-04T07:52:05.467Z,4.35
2022-11-04T07:54:33.842Z,4.20
2022-11-04T07:57:01.810Z,3.78
2022-11-04T07:59:31.195Z,4.63
2022-11-04T08:01:59.287Z,3.90
2022-11-04T08:04:27.479Z,4.00
2022-11-04T08:06:55.749Z,4.15
2022-11-04T08:09:23.865Z,4.53
2022-11-04T08:11:51.847Z,4.40
2022-11-04T08:14:19.829Z,4.15
2022-11-04T08:16:50.960Z,4.10
2022-11-04T08:19:18.952Z,4.07
2022-11-04T08:21:46.929Z,4.13
2022-11-04T08:24:15.175Z,4.20
2022-11-04T08:26:43.315Z,3.83
2022-11-04T08:29:11.567Z,3.88
2022-11-04T08:31:42.166Z,4.03
2022-11-04T08:34:11.558Z,4.03
2022-11-04T08:36:40.904Z,3.85
2022-11-04T08:39:11.236Z,4.20
2022-11-04T08:41:41.117Z,4.15
2022-11-04T08:44:09.283Z,4.47
2022-11-04T08:46:38.564Z,4.18
2022-11-04T08:49:09.878Z,4.30
2022-11-04T08:51:41.004Z,4.03
2022-11-04T08:54:09.170Z,4.40
2022-11-04T08:56:38.170Z,4.10
2022-11-04T08:59:06.195Z,4.13
2022-11-04T09:01:36.391Z,3.90
2022-11-04T09:04:04.749Z,3.65
2022-11-04T09:06:34.243Z,3.90
2022-11-04T09:09:04.698Z,3.90
2022-11-04T09:11:33.105Z,4.20
2022-11-04T09:14:02.240Z,4.32
2022-11-04T09:16:30.358Z,3.92
2022-11-04T09:18:58.707Z,4.05
2022-11-04T09:21:26.880Z,4.10
2022-11-04T09:23:54.898Z,3.75
2022-11-04T09:26:24.629Z,3.60
2022-11-04T09:28:55.295Z,4.20
2022-11-04T09:31:23.306Z,3.88
2022-11-04T09:33:51.710Z,4.00
2022-11-04T09:36:19.812Z,3.80
2022-11-04T09:38:47.788Z,4.25
2022-11-04T09:41:43.899Z,4.15
2022-11-04T09:44:18.963Z,3.90
2022-11-04T09:46:48.491Z,4.03
2022-11-04T09:49:16.636Z,4.22
2022-11-04T09:51:54.926Z,3.75
2022-11-04T09:54:24.780Z,3.75
2022-11-04T09:56:54.214Z,3.83
2022-11-04T09:59:27.163Z,3.70
2022-11-04T10:02:04.171Z,4.07
2022-11-04T10:04:39.951Z,3.92
2022-11-04T10:07:13.791Z,3.80
2022-11-04T10:09:48.941Z,4.00
2022-11-04T10:12:23.543Z,3.83
2022-11-04T10:17:36.863Z,3.47
2022-11-04T10:20:15.238Z,3.80
2022-11-04T10:22:48.110Z,3.78
2022-11-04T10:25:17.217Z,3.80
2022-11-04T10:27:47.427Z,3.72
2022-11-04T10:30:17.182Z,3.83
2022-11-04T10:32:49.664Z,3.25
2022-11-04T10:35:23.074Z,3.58
2022-11-04T10:37:53.228Z,3.80
2022-11-04T10:40:24.146Z,3.47
2022-11-04T10:42:53.839Z,3.03
2022-11-04T10:45:22.075Z,3.65
2022-11-04T10:47:53.046Z,3.92
2022-11-04T10:50:32.668Z,3.38
2022-11-04T10:53:11.416Z,3.53
2022-11-04T10:55:42.621Z,3.70
2022-11-04T10:58:17.361Z,3.50
2022-11-04T11:00:45.539Z,3.55
2022-11-04T11:03:30.486Z,3.47
2022-11-04T11:08:52.403Z,3.03
2022-11-04T11:11:36.950Z,3.45
2022-11-04T11:14:06.453Z,3.03
2022-11-04T11:16:34.424Z,3.38
2022-11-04T11:19:19.008Z,3.30
2022-11-04T11:21:49.210Z,3.47
2022-11-04T11:24:21.977Z,3.28
2022-11-04T11:26:50.883Z,3.25
2022-11-04T11:29:23.558Z,3.30
2022-11-04T11:31:52.634Z,3.30
2022-11-04T11:34:22.694Z,3.53
2022-11-04T11:36:50.909Z,3.60
2022-11-04T11:39:21.996Z,3.40
2022-11-04T11:41:53.268Z,3.38
2022-11-04T11:44:28.697Z,3.47
2022-11-04T11:46:57.769Z,3.30
2022-11-04T11:49:28.883Z,3.17
2022-11-04T11:51:57.092Z,3.20
2022-11-04T11:54:29.666Z,3.25
2022-11-04T11:57:13.057Z,3.38
2022-11-04T12:02:37.104Z,3.17
2022-11-04T12:10:50.985Z,3.30
2022-11-04T12:13:26.454Z,3.08
2022-11-04T12:16:21.185Z,2.90
2022-11-04T12:19:02.494Z,3.30
2022-11-04T12:21:33.680Z,3.47
2022-11-04T12:24:05.693Z,3.50
2022-11-04T12:26:37.793Z,2.83
2022-11-04T12:29:20.238Z,3.30
2022-11-04T12:31:52.741Z,3.33
2022-11-04T12:34:29.594Z,3.17
2022-11-04T12:37:09.043Z,3.33
2022-11-04T12:39:54.374Z,3.45
2022-11-04T12:42:29.633Z,3.13
2022-11-04T12:45:05.712Z,2.92
2022-11-04T12:47:37.214Z,3.13
2022-11-04T12:50:25.061Z,3.38
2022-11-04T12:53:12.319Z,3.20
2022-11-04T12:55:45.293Z,3.10
2022-11-04T12:58:27.003Z,3.20
2022-11-04T13:00:59.701Z,3.25
2022-11-04T13:03:31.635Z,3.25
2022-11-04T13:06:00.902Z,3.10
2022-11-04T13:08:30.340Z,3.42
2022-11-04T13:11:02.578Z,3.13
2022-11-04T13:13:33.102Z,3.17
2022-11-04T13:16:03.590Z,3.38
2022-11-04T13:18:34.229Z,3.53
2022-11-04T13:21:04.194Z,3.50
2022-11-04T13:23:36.160Z,3.10
2022-11-04T13:26:05.046Z,3.10
2022-11-04T13:28:33.028Z,3.22
2022-11-04T13:31:04.483Z,3.22
2022-11-04T13:33:39.197Z,3.28
2022-11-04T13:36:14.203Z,3.40
2022-11-04T13:38:43.675Z,3.13
2022-11-04T13:41:27.213Z,3.20
2022-11-04T13:43:55.841Z,3.17
2022-11-04T13:46:30.477Z,3.28
2022-11-04T13:51:39.938Z,3.00
2022-11-04T13:54:08.039Z,3.53
2022-11-04T13:56:37.379Z,3.20
2022-11-04T13:59:09.063Z,3.03
2022-11-04T14:01:37.915Z,3.67
2022-11-04T14:04:29.897Z,3.15
2022-11-04T14:07:00.859Z,3.53
2022-11-04T14:10:01.032Z,3.20
2022-11-04T14:12:30.817Z,3.42
2022-11-04T14:15:09.396Z,3.33
2022-11-04T14:18:01.654Z,3.45
2022-11-04T14:20:38.133Z,3.75
2022-11-04T14:23:08.478Z,3.40
2022-11-04T14:25:38.489Z,3.38
2022-11-04T14:28:19.562Z,3.35
2022-11-04T14:30:50.103Z,3.28
2022-11-04T14:33:37.607Z,3.65
2022-11-04T14:36:18.762Z,3.50
2022-11-04T14:38:49.143Z,3.40
2022-11-04T14:41:22.708Z,3.20
2022-11-04T14:43:51.358Z,3.67
2022-11-04T14:46:20.668Z,3.72
2022-11-04T14:48:52.727Z,3.80
2022-11-04T14:51:32.478Z,3.42
2022-11-04T14:54:05.465Z,3.85
2022-11-04T14:56:34.061Z,3.58
2022-11-04T14:59:03.315Z,3.80
2022-11-04T15:01:35.303Z,3.85
2022-11-04T15:04:13.286Z,3.33
2022-11-04T15:06:59.711Z,3.83
2022-11-04T15:09:28.718Z,3.50
2022-11-04T15:12:19.627Z,3.58
2022-11-04T15:14:47.565Z,3.67
2022-11-04T15:17:19.756Z,3.10
2022-11-04T15:19:49.509Z,3.42
2022-11-04T15:22:19.523Z,3.20
2022-11-04T15:24:47.448Z,3.38
2022-11-04T15:27:17.355Z,3.38
2022-11-04T15:29:54.556Z,3.30
2022-11-04T15:32:26.776Z,3.17
2022-11-04T15:34:54.805Z,3.30
2022-11-04T15:37:25.256Z,3.08
2022-11-04T15:39:53.996Z,3.33
2022-11-04T15:42:44.224Z,3.55
2022-11-04T15:45:27.016Z,3.10
2022-11-04T15:48:29.942Z,3.38
2022-11-04T15:51:13.683Z,3.33
2022-11-04T15:53:51.784Z,3.55
2022-11-04T15:56:21.775Z,3.13
2022-11-04T15:58:50.367Z,3.72
2022-11-04T16:01:21.476Z,3.63
2022-11-04T16:03:52.277Z,3.22
2022-11-04T16:06:36.228Z,3.63
2022-11-04T16:09:08.884Z,3.28
2022-11-04T16:11:36.954Z,3.42
2022-11-04T16:14:24.866Z,3.13
2022-11-04T16:16:53.525Z,3.67
2022-11-04T16:19:23.571Z,3.42
2022-11-04T16:21:59.086Z,3.92
2022-11-04T16:24:29.991Z,3.55
2022-11-04T16:26:57.974Z,3.60
2022-11-04T16:29:27.708Z,3.35
2022-11-04T16:32:16.083Z,3.80
2022-11-04T16:34:45.375Z,3.63
2022-11-04T16:37:13.592Z,4.00
2022-11-04T16:39:45.934Z,4.07
2022-11-04T16:42:14.114Z,3.70
2022-11-04T16:44:42.837Z,3.67
2022-11-04T16:47:10.846Z,3.70
2022-11-04T16:49:39.452Z,3.38
2022-11-04T16:52:10.040Z,3.88
2022-11-04T16:54:38.706Z,3.85
2022-11-04T16:57:11.785Z,3.75
2022-11-04T16:59:40.770Z,3.58
2022-11-04T17:02:24.706Z,3.75
2022-11-04T17:04:53.871Z,3.78
2022-11-04T17:07:30.479Z,4.07
2022-11-04T17:10:14.887Z,4.13
2022-11-04T17:12:44.287Z,4.10
2022-11-04T17:15:13.214Z,4.18
2022-11-04T17:17:41.252Z,4.30
2022-11-04T17:20:12.763Z,4.20
2022-11-04T17:22:40.739Z,4.40
2022-11-04T17:25:15.240Z,4.20
2022-11-04T17:27:44.609Z,4.10
2022-11-04T17:30:14.858Z,4.43
2022-11-04T17:32:42.882Z,4.68
2022-11-04T17:35:12.328Z,4.45
2022-11-04T17:37:40.245Z,4.43
2022-11-04T17:40:11.130Z,4.47
2022-11-04T17:42:56.351Z,4.30
2022-11-04T17:45:27.171Z,4.38
2022-11-04T17:47:55.130Z,4.20
2022-11-04T17:50:23.726Z,3.92
2022-11-04T17:52:51.714Z,4.20
2022-11-04T17:55:26.211Z,4.38
2022-11-04T17:57:55.430Z,4.57
2022-11-04T18:00:31.201Z,4.93
2022-11-04T18:03:00.764Z,4.55
2022-11-04T18:05:29.494Z,4.13
2022-11-04T18:07:58.548Z,4.32
2022-11-04T18:10:27.262Z,4.68
2022-11-04T18:12:55.206Z,4.22
2022-11-04T18:15:23.883Z,4.35
2022-11-04T18:17:53.234Z,4.45
2022-11-04T18:20:22.277Z,4.80
2022-11-04T18:22:50.238Z,4.50
2022-11-04T18:25:19.314Z,4.70
2022-11-04T18:27:48.978Z,4.65
2022-11-04T18:30:17.877Z,4.28
2022-11-04T18:32:45.823Z,4.47
2022-11-04T18:35:15.900Z,4.55
2022-11-04T18:37:47.321Z,4.63
2022-11-04T18:40:16.794Z,4.78
2022-11-04T18:42:44.718Z,4.80
2022-11-04T18:45:14.017Z,4.57
2022-11-04T18:47:42.018Z,4.15
2022-11-04T18:50:11.694Z,4.47
2022-11-04T18:52:41.084Z,4.45
2022-11-04T18:55:12.228Z,4.30
2022-11-04T18:57:40.160Z,4.82
2022-11-04T19:00:15.794Z,4.53
2022-11-04T19:02:46.277Z,4.68
2022-11-04T19:05:15.214Z,4.97
2022-11-04T19:07:44.636Z,4.50
2022-11-04T19:10:14.344Z,4.20
2022-11-04T19:12:59.785Z,4.57
2022-11-04T19:15:29.148Z,4.40
2022-11-04T19:17:57.208Z,4.75
2022-11-04T19:20:25.882Z,3.92
2022-11-04T19:22:55.263Z,4.25
2022-11-04T19:25:23.968Z,4.28
2022-11-04T19:28:11.607Z,4.00
2022-11-04T19:30:40.694Z,3.80
2022-11-04T19:33:08.622Z,3.85
2022-11-04T19:35:37.585Z,4.15
2022-11-04T19:38:07.072Z,3.90
2022-11-04T19:40:36.212Z,4.03
2022-11-04T19:43:12.056Z,4.07
2022-11-04T19:45:41.792Z,4.18
2022-11-04T19:48:10.173Z,4.40
2022-11-04T19:50:42.187Z,4.45
2022-11-04T19:53:11.622Z,4.25
2022-11-04T19:55:40.392Z,3.90
2022-11-04T19:58:08.727Z,4.30
2022-11-04T20:00:37.667Z,3.85
2022-11-04T20:03:06.353Z,3.78
2022-11-04T20:05:38.750Z,3.97
2022-11-04T20:08:07.334Z,3.80
2022-11-04T20:10:38.957Z,4.28
2022-11-04T20:13:24.386Z,3.95
2022-11-04T20:18:57.620Z,3.88
2022-11-04T20:21:28.874Z,3.70
2022-11-04T20:23:56.931Z,3.35
2022-11-04T20:26:27.261Z,3.90
2022-11-04T20:28:56.252Z,3.45
2022-11-04T20:31:25.877Z,3.70
2022-11-04T20:33:54.107Z,3.60
2022-11-04T20:36:23.774Z,3.75
2022-11-04T20:38:56.073Z,3.60
2022-11-04T20:41:24.734Z,3.70
2022-11-04T20:43:55.092Z,3.58
2022-11-04T20:46:26.398Z,4.00
2022-11-04T20:48:54.342Z,3.30
2022-11-04T20:51:23.780Z,3.60
2022-11-04T20:53:55.896Z,3.20
2022-11-04T20:56:26.056Z,3.60
2022-11-04T20:58:59.001Z,3.53
2022-11-04T21:01:30.273Z,3.35
2022-11-04T21:04:01.024Z,3.25
2022-11-04T21:06:29.876Z,3.60
2022-11-04T21:08:58.238Z,3.40
2022-11-04T21:11:31.497Z,3.45
2022-11-04T21:14:01.549Z,3.37
2022-11-04T21:16:31.322Z,3.17
2022-11-04T21:18:59.766Z,3.33
2022-11-04T21:21:31.318Z,3.75
2022-11-04T21:23:59.904Z,3.40
2022-11-04T21:26:29.469Z,2.97
2022-11-04T21:28:57.559Z,3.13
2022-11-04T21:31:27.739Z,2.85
2022-11-04T21:33:55.764Z,3.22
2022-11-04T21:36:24.434Z,3.22
2022-11-04T21:38:52.865Z,2.90
2022-11-04T21:41:23.882Z,3.30
2022-11-04T21:43:55.206Z,3.22
2022-11-04T21:46:24.362Z,2.60
2022-11-04T21:48:53.751Z,2.95
2022-11-04T21:51:23.193Z,3.20
2022-11-04T21:53:51.124Z,2.75
2022-11-04T21:56:22.373Z,3.25
2022-11-04T21:58:50.355Z,3.28
2022-11-04T22:01:22.042Z,3.20
2022-11-04T22:03:51.002Z,2.85
2022-11-04T22:06:21.094Z,2.65
2022-11-04T22:08:53.807Z,2.88
2022-11-04T22:11:23.611Z,2.90
2022-11-04T22:13:54.810Z,3.00
2022-11-04T22:16:25.049Z,3.13
2022-11-04T22:18:53.730Z,3.08
2022-11-04T22:21:23.502Z,3.05
2022-11-04T22:23:52.259Z,3.17
2022-11-04T22:26:21.012Z,2.95
2022-11-04T22:28:49.697Z,3.33
2022-11-04T22:31:18.480Z,2.90
2022-11-04T22:33:47.064Z,2.90
2022-11-04T22:36:15.169Z,2.70
2022-11-04T22:38:45.346Z,3.00
2022-11-04T22:41:14.136Z,2.80
2022-11-04T22:43:43.078Z,2.53
2022-11-04T22:46:12.935Z,2.75
2022-11-04T22:48:41.528Z,2.70
2022-11-04T22:51:10.132Z,2.80
2022-11-04T22:53:38.832Z,2.70
2022-11-04T22:56:09.066Z,2.70
2022-11-04T22:58:37.487Z,2.63
2022-11-04T23:01:07.346Z,2.80
2022-11-04T23:03:35.873Z,2.67
2022-11-04T23:06:04.861Z,2.50
2022-11-04T23:08:33.626Z,2.85
2022-11-04T23:11:20.361Z,2.70
2022-11-04T23:14:09.702Z,2.60
2022-11-04T23:16:55.051Z,2.90
2022-11-04T23:19:28.278Z,2.60
2022-11-04T23:22:16.214Z,2.63
2022-11-04T23:25:01.342Z,2.90
2022-11-04T23:27:46.820Z,2.58
2022-11-04T23:30:22.403Z,2.53
2022-11-04T23:32:50.531Z,2.63
2022-11-04T23:35:35.835Z,2.20
2022-11-04T23:38:03.794Z,2.53
2022-11-04T23:40:32.351Z,2.58
2022-11-04T23:42:59.450Z,2.70
2022-11-04T23:45:46.588Z,2.40
2022-11-04T23:48:32.052Z,2.55
2022-11-04T23:51:18.348Z,2.20
2022-11-04T23:54:03.833Z,2.10
2022-11-04T23:56:49.222Z,2.40
2022-11-04T23:59:34.559Z,2.45
